Appomattox, Virginia
Current Conditions -  °F | °C
As of 6:55 PM on Wednesday 22 Oct 2014 (Local Time) from K0V4 Reporting Station
Broken Clouds Broken Clouds  
Wind Chill: 60°   Ceiling: 6500
Heat Index: 60°   Visibility: 10mi
Dew Point: 44°   Wind: 9mph
Humidity: 57%   Direction: 330°NNW
Pressure: 30"   Gusts: 18mph
Location:  37.36°N, 78.83°W
Report Text: K0V4 222255Z AUTO 33008G16KT 10SM BKN065 15/07 A3000 RMK AO1 T01530067
Loading
Personal Weather Stations






























Interactive Weather Map
Tropical Storm Tracking
New forecast layout! Learn more

10-Day Weather Forecast

Advertisements
Track Severe Weather on mobile